Time;durP1;ratioP1;P1;durP2;ratioP2;P2;SDS_P1;SDS_P2;PMS_P1;PMS_P2;Temp;Humidity;BMP_temperature;BMP_pressure;BME280_temperature;BME280_humidity;BME280_pressure;Samples;Min_cycle;Max_cycle;Signal;HPM_P1;HPM_P2
2022/09/30 00:03:58;;;;;;;;;;;;;;;8.99;100.00;100000.69;10098221;29;19938;-73
2022/09/30 00:09:03;;;;;;;;;;;;;;;9.03;100.00;100002.38;10098134;29;19927;-76
2022/09/30 00:14:07;;;;;;;;;;;;;;;9.08;100.00;99999.72;10097086;29;20262;-73
2022/09/30 00:19:10;;;;;;;;;;;;;;;8.93;100.00;99998.16;10098231;29;20322;-74
2022/09/30 00:24:14;;;;;;;;;;;;;;;8.75;100.00;99997.47;10097942;29;19928;-73
2022/09/30 00:29:17;;;;;;;;;;;;;;;8.95;100.00;100008.50;10097520;29;20290;-73
2022/09/30 00:34:20;;;;;;;;;;;;;;;9.08;100.00;100007.50;10097346;29;20015;-75
2022/09/30 00:39:26;;;;;;;;;;;;;;;9.12;100.00;100016.97;10097138;29;20011;-65
2022/09/30 00:44:50;;;;;;;;;;;;;;;9.09;100.00;100025.59;10097425;29;19967;-73
2022/09/30 00:49:53;;;;;;;;;;;;;;;9.01;100.00;100009.28;10097591;29;20318;-72
2022/09/30 00:54:58;;;;;;;;;;;;;;;8.99;100.00;100012.78;10098373;29;20019;-73
2022/09/30 01:00:02;;;;;;;;;;;;;;;9.04;100.00;100011.84;9758584;29;10000263;-72
2022/09/30 01:05:06;;;;;;;;;;;;;;;8.71;100.00;100019.94;10058885;29;19928;-62
2022/09/30 01:10:10;;;;;;;;;;;;;;;8.62;100.00;100009.66;10058534;29;20030;-68
2022/09/30 01:15:13;;;;;;;;;;;;;;;8.98;100.00;100008.47;10058180;29;20357;-71
2022/09/30 01:20:33;;;;;;;;;;;;;;;9.01;100.00;100005.84;10058158;29;20330;-67
2022/09/30 01:25:51;;;;;;;;;;;;;;;8.80;100.00;100012.06;10061778;29;19943;-73
2022/09/30 01:31:07;;;;;;;;;;;;;;;8.98;100.00;100011.91;10057630;29;19936;-72
2022/09/30 01:36:22;;;;;;;;;;;;;;;9.03;100.00;100030.84;10065732;29;19928;-70
2022/09/30 01:41:27;;;;;;;;;;;;;;;8.97;100.00;100024.88;10065239;29;19935;-71
2022/09/30 01:46:36;;;;;;;;;;;;;;;8.93;100.00;100028.34;10064898;29;19996;-70
2022/09/30 01:51:42;;;;;;;;;;;;;;;8.94;100.00;100037.81;10064966;29;19935;-71
2022/09/30 01:56:47;;;;;;;;;;;;;;;8.67;100.00;100044.09;10093070;29;19939;-63
2022/09/30 02:01:54;;;;;;;;;;;;;;;8.78;100.00;100042.28;10102728;29;19927;-68
2022/09/30 02:07:00;;;;;;;;;;;;;;;8.74;100.00;100052.66;10084471;29;19963;-67
2022/09/30 02:12:06;;;;;;;;;;;;;;;8.67;100.00;100053.56;10063997;29;19954;-65
2022/09/30 02:17:15;;;;;;;;;;;;;;;8.85;100.00;100049.09;10063839;29;19938;-72
2022/09/30 02:22:20;;;;;;;;;;;;;;;8.72;100.00;100070.78;10063634;29;19984;-65
2022/09/30 02:27:25;;;;;;;;;;;;;;;8.71;100.00;100081.16;10063432;29;19928;-71
2022/09/30 02:32:31;;;;;;;;;;;;;;;8.78;100.00;100070.75;10063498;29;20255;-72
2022/09/30 02:37:36;;;;;;;;;;;;;;;8.85;100.00;100076.75;10062444;29;19928;-75
2022/09/30 02:42:40;;;;;;;;;;;;;;;8.78;100.00;100083.69;10062971;29;19928;-73
2022/09/30 02:47:54;;;;;;;;;;;;;;;8.80;100.00;100078.50;10062770;29;19932;-70
2022/09/30 02:53:01;;;;;;;;;;;;;;;8.73;100.00;100088.00;10064065;29;19932;-69
2022/09/30 02:58:08;;;;;;;;;;;;;;;8.62;100.00;100089.84;10065364;29;20020;-74
2022/09/30 03:03:17;;;;;;;;;;;;;;;8.64;100.00;100085.50;10065193;29;19936;-69
2022/09/30 03:08:19;;;;;;;;;;;;;;;8.65;100.00;100079.47;10049409;29;19929;-71
2022/09/30 03:13:28;;;;;;;;;;;;;;;8.66;100.00;100096.69;10065344;29;19934;-74
2022/09/30 03:18:45;;;;;;;;;;;;;;;8.64;100.00;100082.94;10064613;29;20342;-77
2022/09/30 03:24:03;;;;;;;;;;;;;;;8.57;100.00;100089.00;10064806;29;20358;-71
2022/09/30 03:29:12;;;;;;;;;;;;;;;8.53;100.00;100105.41;10064389;29;20026;-75
2022/09/30 03:34:19;;;;;;;;;;;;;;;8.50;100.00;100110.59;10064693;29;19935;-72
2022/09/30 03:39:24;;;;;;;;;;;;;;;8.50;100.00;100105.44;10064240;29;20372;-73
2022/09/30 03:44:31;;;;;;;;;;;;;;;8.50;100.00;100113.19;10063930;29;19942;-74
2022/09/30 03:49:39;;;;;;;;;;;;;;;8.44;100.00;100100.28;10064082;29;19934;-74
2022/09/30 03:54:46;;;;;;;;;;;;;;;8.45;100.00;100098.56;10063597;29;19928;-71
2022/09/30 03:59:49;;;;;;;;;;;;;;;8.49;100.00;100105.44;10063004;29;19963;-72
2022/09/30 04:04:54;;;;;;;;;;;;;;;8.51;100.00;100107.13;10063072;29;19928;-71
2022/09/30 04:09:57;;;;;;;;;;;;;;;8.49;100.00;100111.44;10062987;29;19934;-72
2022/09/30 04:14:59;;;;;;;;;;;;;;;8.53;100.00;100117.47;10062835;29;20023;-73
2022/09/30 04:20:04;;;;;;;;;;;;;;;8.46;100.00;100129.59;10062799;29;20019;-74
2022/09/30 04:25:08;;;;;;;;;;;;;;;8.36;100.00;100143.44;10062993;29;19975;-73
2022/09/30 04:30:11;;;;;;;;;;;;;;;8.39;100.00;100153.75;10062608;29;19928;-74
2022/09/30 04:35:15;;;;;;;;;;;;;;;8.36;100.00;100161.53;10062395;29;19967;-71
2022/09/30 04:40:19;;;;;;;;;;;;;;;8.43;100.00;100176.16;10062401;29;19936;-73
2022/09/30 04:45:23;;;;;;;;;;;;;;;8.36;100.00;100164.13;10062693;29;19928;-71
2022/09/30 04:50:28;;;;;;;;;;;;;;;8.30;100.00;100177.06;10062082;29;19928;-73
2022/09/30 04:55:31;;;;;;;;;;;;;;;8.28;100.00;100176.22;10061931;29;19928;-70
2022/09/30 05:00:34;;;;;;;;;;;;;;;8.21;100.00;100184.84;10065304;29;20027;-74
2022/09/30 05:05:39;;;;;;;;;;;;;;;8.10;100.00;100197.78;10069624;29;19939;-70
2022/09/30 05:10:42;;;;;;;;;;;;;;;8.11;100.00;100194.31;10069834;29;19971;-74
2022/09/30 05:15:47;;;;;;;;;;;;;;;8.21;100.00;100205.50;10069476;29;19983;-74
2022/09/30 05:20:52;;;;;;;;;;;;;;;8.18;100.00;100214.13;10068957;29;19999;-74
2022/09/30 05:25:56;;;;;;;;;;;;;;;8.27;100.00;100205.50;10068804;29;19938;-71
2022/09/30 05:31:00;;;;;;;;;;;;;;;8.31;100.00;100196.88;10068546;29;20118;-74
2022/09/30 05:36:05;;;;;;;;;;;;;;;8.37;100.00;100202.03;10068520;29;19928;-74
2022/09/30 05:41:10;;;;;;;;;;;;;;;8.36;100.00;100205.50;10068411;29;19936;-71
2022/09/30 05:46:13;;;;;;;;;;;;;;;8.17;100.00;100212.41;10067972;29;19928;-72
2022/09/30 05:51:17;;;;;;;;;;;;;;;8.12;100.00;100228.78;10067865;29;20517;-72
2022/09/30 05:56:20;;;;;;;;;;;;;;;8.18;100.00;100226.19;10067919;29;19934;-69
2022/09/30 06:01:23;;;;;;;;;;;;;;;8.38;100.00;100228.75;10067171;29;19928;-73
2022/09/30 06:06:29;;;;;;;;;;;;;;;8.53;100.00;100229.56;10067400;29;20377;-75
2022/09/30 06:11:32;;;;;;;;;;;;;;;8.63;100.00;100233.81;9750075;29;10000284;-72
2022/09/30 06:16:35;;;;;;;;;;;;;;;8.66;100.00;100249.31;10102302;29;20400;-70
2022/09/30 06:21:39;;;;;;;;;;;;;;;8.69;100.00;100245.88;10102000;29;20273;-72
2022/09/30 06:26:44;;;;;;;;;;;;;;;8.71;100.00;100260.53;10101417;29;20306;-72
2022/09/30 06:31:47;;;;;;;;;;;;;;;8.78;100.00;100266.53;10101980;29;19928;-73
2022/09/30 06:36:52;;;;;;;;;;;;;;;8.85;100.00;100261.31;10102023;29;19928;-71
2022/09/30 06:41:55;;;;;;;;;;;;;;;8.76;100.00;100260.50;10101347;29;20346;-72
2022/09/30 06:46:59;;;;;;;;;;;;;;;8.78;100.00;100262.22;10138503;29;19927;-71
2022/09/30 06:52:03;;;;;;;;;;;;;;;8.94;100.00;100268.16;10139757;29;19935;-70
2022/09/30 06:57:06;;;;;;;;;;;;;;;9.01;100.00;100257.78;10139213;29;19963;-70
2022/09/30 07:02:12;;;;;;;;;;;;;;;9.09;100.00;100253.41;10139179;29;20256;-76
2022/09/30 07:07:17;;;;;;;;;;;;;;;9.13;100.00;100264.59;10139721;29;19927;-73
2022/09/30 07:12:21;;;;;;;;;;;;;;;9.23;100.00;100268.88;10112323;29;19932;-72
2022/09/30 07:17:24;;;;;;;;;;;;;;;9.21;100.00;100271.47;10099973;29;19938;-72
2022/09/30 07:22:30;;;;;;;;;;;;;;;9.26;100.00;100269.72;10099366;29;20346;-74
2022/09/30 07:27:33;;;;;;;;;;;;;;;9.34;100.00;100273.13;10099743;29;20015;-75
2022/09/30 07:32:36;;;;;;;;;;;;;;;9.51;100.00;100282.50;10099724;29;19928;-73
2022/09/30 07:37:41;;;;;;;;;;;;;;;9.60;100.00;100282.41;10099567;29;20013;-70
2022/09/30 07:42:44;;;;;;;;;;;;;;;9.64;100.00;100279.81;10099059;29;19931;-65
2022/09/30 07:47:48;;;;;;;;;;;;;;;9.61;100.00;100291.94;10099466;29;20378;-74
2022/09/30 07:52:57;;;;;;;;;;;;;;;9.87;100.00;100302.97;10098836;29;20250;-73
2022/09/30 07:58:00;;;;;;;;;;;;;;;10.16;100.00;100296.66;10098301;29;19928;-72
2022/09/30 08:03:03;;;;;;;;;;;;;;;10.34;100.00;100301.69;10083521;29;19939;-72
2022/09/30 08:08:08;;;;;;;;;;;;;;;10.61;100.00;100310.91;10098900;29;20299;-73
2022/09/30 08:13:12;;;;;;;;;;;;;;;10.88;100.00;100320.97;10097868;29;19942;-71
2022/09/30 08:18:15;;;;;;;;;;;;;;;11.02;100.00;100316.47;10098949;29;19928;-70
2022/09/30 08:23:20;;;;;;;;;;;;;;;11.18;100.00;100310.19;10100178;29;19938;-71
2022/09/30 08:28:24;;;;;;;;;;;;;;;11.30;100.00;100316.97;10100641;29;20266;-69
2022/09/30 08:33:27;;;;;;;;;;;;;;;11.47;100.00;100325.38;10099572;29;19928;-72
2022/09/30 08:38:32;;;;;;;;;;;;;;;11.65;100.00;100326.91;10100469;29;20393;-68
2022/09/30 08:43:40;;;;;;;;;;;;;;;11.84;100.00;100336.13;10100272;29;20035;-70
2022/09/30 08:48:48;;;;;;;;;;;;;;;11.95;100.00;100321.19;10100611;29;19938;-70
2022/09/30 08:53:52;;;;;;;;;;;;;;;12.04;100.00;100331.47;10100281;29;19936;-73
2022/09/30 08:58:58;;;;;;;;;;;;;;;12.07;100.00;100337.47;10100620;29;19971;-73
2022/09/30 09:04:02;;;;;;;;;;;;;;;12.16;100.00;100341.66;10100149;29;19932;-72
2022/09/30 09:09:16;;;;;;;;;;;;;;;12.21;100.00;100337.25;10100111;29;20031;-73
2022/09/30 09:14:26;;;;;;;;;;;;;;;12.31;100.00;100341.41;10100103;29;19927;-72
2022/09/30 09:19:36;;;;;;;;;;;;;;;12.37;100.00;100344.75;10099911;29;19934;-72
2022/09/30 09:24:43;;;;;;;;;;;;;;;12.51;100.00;100340.16;10099909;29;19967;-74
2022/09/30 09:29:53;;;;;;;;;;;;;;;12.63;100.00;100341.69;10099822;29;19967;-71
2022/09/30 09:34:58;;;;;;;;;;;;;;;12.81;100.00;100336.13;10099669;29;20302;-73
2022/09/30 09:40:09;;;;;;;;;;;;;;;12.85;100.00;100329.97;10099629;29;19931;-73
2022/09/30 09:45:16;;;;;;;;;;;;;;;12.89;100.00;100334.22;10100775;29;20354;-73
2022/09/30 09:50:21;;;;;;;;;;;;;;;13.02;100.00;100321.84;10106475;29;19928;-73
2022/09/30 09:55:26;;;;;;;;;;;;;;;13.16;100.00;100331.09;10105727;29;19967;-75
2022/09/30 10:06:11;;;;;;;;;;;;;;;13.26;100.00;100321.31;9969834;29;19961;-70
2022/09/30 10:11:21;;;;;;;;;;;;;;;13.36;100.00;100315.00;10046881;29;20555;-71
2022/09/30 10:16:27;;;;;;;;;;;;;;;13.54;100.00;100302.44;10063700;29;19928;-74
2022/09/30 10:21:30;;;;;;;;;;;;;;;13.86;100.00;100312.09;10064063;29;19928;-73
2022/09/30 10:26:42;;;;;;;;;;;;;;;13.99;99.63;100308.31;10063573;29;19936;-72
2022/09/30 10:31:51;;;;;;;;;;;;;;;14.05;98.72;100313.38;10063606;29;20304;-74
2022/09/30 10:37:02;;;;;;;;;;;;;;;13.99;96.10;100320.50;10063654;29;19964;-76
2022/09/30 10:42:08;;;;;;;;;;;;;;;14.02;95.84;100321.28;10062925;29;20023;-74
2022/09/30 10:47:14;;;;;;;;;;;;;;;14.13;95.39;100319.28;10063244;29;20362;-74
2022/09/30 10:52:18;;;;;;;;;;;;;;;14.40;93.94;100326.41;10062863;29;19934;-75
2022/09/30 10:57:24;;;;;;;;;;;;;;;14.56;92.33;100314.69;10064830;29;19928;-72
2022/09/30 11:02:30;;;;;;;;;;;;;;;14.63;91.94;100320.59;10100893;29;20326;-73
2022/09/30 11:07:38;;;;;;;;;;;;;;;14.60;91.24;100321.50;10100447;29;20026;-67
2022/09/30 11:12:45;;;;;;;;;;;;;;;14.64;92.35;100320.53;10100065;29;19971;-69
2022/09/30 11:17:52;;;;;;;;;;;;;;;14.61;91.39;100322.38;10100294;29;20555;-68
2022/09/30 11:22:58;;;;;;;;;;;;;;;14.50;89.93;100325.28;10099975;29;19978;-71
2022/09/30 11:28:08;;;;;;;;;;;;;;;14.52;90.49;100320.00;10099748;29;20265;-68
2022/09/30 11:33:19;;;;;;;;;;;;;;;14.52;90.11;100317.41;10099812;29;19932;-70
2022/09/30 11:38:29;;;;;;;;;;;;;;;14.52;89.40;100320.88;10099551;29;20014;-70
2022/09/30 11:43:38;;;;;;;;;;;;;;;14.55;89.92;100315.56;10098957;29;19947;-69
2022/09/30 11:48:50;;;;;;;;;;;;;;;14.61;88.84;100312.78;10099382;29;19990;-69
2022/09/30 11:54:00;;;;;;;;;;;;;;;14.66;87.24;100313.53;10098539;29;19989;-70
2022/09/30 11:59:11;;;;;;;;;;;;;;;14.62;86.47;100319.72;10098176;29;19970;-70
2022/09/30 12:04:15;;;;;;;;;;;;;;;14.63;86.56;100317.97;10098245;29;19942;-71
2022/09/30 12:09:23;;;;;;;;;;;;;;;14.60;85.77;100325.91;10098838;29;20373;-72
2022/09/30 12:14:30;;;;;;;;;;;;;;;14.55;85.19;100319.91;10099231;29;19927;-74
2022/09/30 12:19:36;;;;;;;;;;;;;;;14.56;86.43;100316.44;10098345;29;19928;-77
2022/09/30 12:24:40;;;;;;;;;;;;;;;14.64;85.85;100315.31;10097796;29;20323;-75
2022/09/30 12:35:26;;;;;;;;;;;;;;;14.61;84.92;100317.16;10094335;29;20023;-72
2022/09/30 12:40:38;;;;;;;;;;;;;;;14.65;84.79;100316.19;10090912;29;19942;-77
2022/09/30 12:45:59;;;;;;;;;;;;;;;14.75;86.09;100310.63;10097128;29;20437;-75
2022/09/30 12:51:03;;;;;;;;;;;;;;;14.82;85.64;100298.28;10097641;29;19938;-72
2022/09/30 12:56:08;;;;;;;;;;;;;;;14.84;85.39;100310.38;10097695;29;19932;-72
2022/09/30 13:01:15;;;;;;;;;;;;;;;14.84;84.46;100312.16;10097111;29;20239;-71
2022/09/30 13:06:19;;;;;;;;;;;;;;;14.84;84.92;100304.31;10096887;29;20272;-73
2022/09/30 13:11:36;;;;;;;;;;;;;;;14.86;84.69;100297.28;10097032;29;19928;-78
2022/09/30 13:16:59;;;;;;;;;;;;;;;14.87;84.41;100301.63;10096871;29;19927;-75
2022/09/30 13:22:17;;;;;;;;;;;;;;;14.88;84.79;100293.72;10084860;29;19964;-76
2022/09/30 13:27:32;;;;;;;;;;;;;;;14.91;84.37;100292.75;10095617;29;19942;-77
2022/09/30 13:32:36;;;;;;;;;;;;;;;14.88;83.09;100295.47;10080110;29;19947;-76
2022/09/30 13:37:39;;;;;;;;;;;;;;;14.87;82.59;100293.78;10065166;29;20358;-75
2022/09/30 13:42:48;;;;;;;;;;;;;;;14.82;82.91;100296.50;10065001;29;19932;-74
2022/09/30 13:47:57;;;;;;;;;;;;;;;14.78;81.91;100294.03;10065195;29;19928;-76
2022/09/30 13:53:02;;;;;;;;;;;;;;;14.72;81.13;100294.22;10070985;29;20047;-75
2022/09/30 13:58:15;;;;;;;;;;;;;;;14.72;80.45;100286.38;10086271;29;20324;-74
2022/09/30 14:03:39;;;;;;;;;;;;;;;14.65;80.62;100283.06;10073477;29;20011;-73
2022/09/30 14:08:56;;;;;;;;;;;;;;;14.61;80.04;100285.81;10064169;29;19940;-73
2022/09/30 14:14:06;;;;;;;;;;;;;;;14.60;80.67;100289.34;10064002;29;19928;-75
2022/09/30 14:19:16;;;;;;;;;;;;;;;14.58;82.84;100285.91;10066588;29;20588;-72
2022/09/30 14:24:22;;;;;;;;;;;;;;;14.55;82.12;100292.06;10063413;29;20288;-70
2022/09/30 14:29:32;;;;;;;;;;;;;;;14.52;81.75;100299.13;10062736;29;19943;-70
2022/09/30 14:34:35;;;;;;;;;;;;;;;14.50;83.64;100303.50;10061847;29;19959;-73
2022/09/30 14:39:38;;;;;;;;;;;;;;;14.48;84.75;100297.50;10062760;29;19935;-72
2022/09/30 14:44:43;;;;;;;;;;;;;;;14.37;85.16;100312.59;10061926;29;19956;-71
2022/09/30 14:49:46;;;;;;;;;;;;;;;14.33;85.18;100306.59;10062483;29;19966;-71
2022/09/30 14:54:49;;;;;;;;;;;;;;;14.33;85.59;100313.56;10064067;29;19928;-71
2022/09/30 15:00:13;;;;;;;;;;;;;;;14.29;85.61;100317.16;10099892;29;19967;-71
2022/09/30 15:05:18;;;;;;;;;;;;;;;14.25;86.30;100323.31;10099970;29;20011;-71
2022/09/30 15:10:23;;;;;;;;;;;;;;;14.16;85.56;100316.56;10099941;29;19928;-72
2022/09/30 15:15:32;;;;;;;;;;;;;;;14.09;85.37;100311.53;10099508;29;20444;-74
2022/09/30 15:20:36;;;;;;;;;;;;;;;14.01;87.23;100313.50;10099310;29;20326;-71
2022/09/30 15:25:39;;;;;;;;;;;;;;;14.01;87.00;100316.09;10099463;29;20342;-72
2022/09/30 15:30:42;;;;;;;;;;;;;;;13.98;86.72;100324.84;10099141;29;20381;-70
2022/09/30 15:35:47;;;;;;;;;;;;;;;13.93;87.27;100315.44;10099455;29;19959;-73
2022/09/30 15:40:57;;;;;;;;;;;;;;;13.86;86.88;100315.56;10098995;29;19932;-72
2022/09/30 15:46:16;;;;;;;;;;;;;;;13.84;87.76;100314.75;10098323;29;19963;-73
2022/09/30 15:51:24;;;;;;;;;;;;;;;13.82;87.37;100326.97;10097956;29;19927;-71
2022/09/30 15:56:35;;;;;;;;;;;;;;;13.80;87.97;100315.69;10097634;29;19955;-71
2022/09/30 16:01:39;;;;;;;;;;;;;;;13.80;89.01;100323.53;10097914;29;19947;-73
2022/09/30 16:06:45;;;;;;;;;;;;;;;13.79;87.69;100326.19;10097618;29;19927;-71
2022/09/30 16:11:58;;;;;;;;;;;;;;;13.74;88.26;100325.44;10098361;29;20007;-70
2022/09/30 16:17:02;;;;;;;;;;;;;;;13.65;89.63;100334.31;10097922;29;19962;-73
2022/09/30 16:22:32;;;;;;;;;;;;;;;13.79;90.13;100344.44;10111727;29;19928;-74
2022/09/30 16:27:35;;;;;;;;;;;;;;;13.80;89.05;100351.41;10097265;29;19975;-73
2022/09/30 16:32:40;;;;;;;;;;;;;;;13.81;90.40;100356.56;10096137;29;19928;-78
2022/09/30 16:37:44;;;;;;;;;;;;;;;13.78;90.39;100372.31;10097325;29;19971;-76
2022/09/30 16:42:47;;;;;;;;;;;;;;;13.78;91.73;100380.13;10096817;29;19928;-76
2022/09/30 16:47:51;;;;;;;;;;;;;;;13.74;92.38;100381.06;10097794;29;20015;-76
2022/09/30 16:52:55;;;;;;;;;;;;;;;13.71;92.18;100388.97;10100753;29;19928;-74
2022/09/30 16:57:59;;;;;;;;;;;;;;;13.69;92.02;100390.75;10096063;29;20281;-76
2022/09/30 17:03:02;;;;;;;;;;;;;;;13.68;93.01;100393.41;10096624;29;20314;-75
2022/09/30 17:08:09;;;;;;;;;;;;;;;13.61;93.11;100390.09;10096572;29;19953;-75
2022/09/30 17:13:15;;;;;;;;;;;;;;;13.66;93.42;100380.41;10096866;29;19928;-76
2022/09/30 17:18:18;;;;;;;;;;;;;;;13.62;92.77;100385.69;10096525;29;20474;-76
2022/09/30 17:23:24;;;;;;;;;;;;;;;13.64;92.74;100400.44;10118275;29;19927;-75
2022/09/30 17:28:27;;;;;;;;;;;;;;;13.65;93.81;100394.31;10135119;29;19931;-75
2022/09/30 17:33:31;;;;;;;;;;;;;;;13.61;94.17;100390.09;10135068;29;19967;-76
2022/09/30 17:38:35;;;;;;;;;;;;;;;13.55;91.25;100392.81;10134819;29;19935;-76
2022/09/30 17:43:38;;;;;;;;;;;;;;;13.52;91.13;100403.31;10134807;29;19927;-74
2022/09/30 17:48:42;;;;;;;;;;;;;;;13.57;89.86;100403.19;10134912;29;19936;-75
2022/09/30 17:53:48;;;;;;;;;;;;;;;13.57;89.04;100398.84;10132915;29;19928;-74
2022/09/30 17:58:51;;;;;;;;;;;;;;;13.56;89.40;100404.94;10118841;29;19927;-77
2022/09/30 18:03:57;;;;;;;;;;;;;;;13.55;90.21;100398.03;10095089;29;19939;-75
2022/09/30 18:09:02;;;;;;;;;;;;;;;13.55;90.83;100408.47;10100904;29;19982;-74
2022/09/30 18:14:05;;;;;;;;;;;;;;;13.58;91.69;100412.75;10102835;29;19981;-74
2022/09/30 18:19:08;;;;;;;;;;;;;;;13.54;91.21;100409.34;10101616;29;19932;-74
2022/09/30 18:24:13;;;;;;;;;;;;;;;13.51;91.45;100412.00;10101160;29;19935;-67
2022/09/30 18:29:16;;;;;;;;;;;;;;;13.51;92.47;100409.41;10101566;29;19959;-74
2022/09/30 18:34:19;;;;;;;;;;;;;;;13.50;92.48;100394.66;10101694;29;19963;-74
2022/09/30 18:39:23;;;;;;;;;;;;;;;13.51;93.15;100392.91;10101386;29;19974;-73
2022/09/30 18:44:27;;;;;;;;;;;;;;;13.54;93.36;100391.09;10102241;29;19932;-74
2022/09/30 18:49:30;;;;;;;;;;;;;;;13.54;94.55;100383.28;10100930;29;19928;-72
2022/09/30 18:54:34;;;;;;;;;;;;;;;13.47;94.87;100392.13;10100606;29;19927;-73
2022/09/30 18:59:37;;;;;;;;;;;;;;;13.43;95.73;100398.28;10100299;29;19967;-74
2022/09/30 19:04:40;;;;;;;;;;;;;;;13.48;95.67;100399.03;10100579;29;19928;-74
2022/09/30 19:09:47;;;;;;;;;;;;;;;13.47;96.52;100378.22;10100185;29;20319;-73
2022/09/30 19:14:50;;;;;;;;;;;;;;;13.48;97.20;100385.13;10100536;29;19928;-73
2022/09/30 19:19:53;;;;;;;;;;;;;;;13.43;98.58;100389.59;10083140;29;20294;-74
2022/09/30 19:24:59;;;;;;;;;;;;;;;13.44;98.85;100391.31;10099649;29;19928;-73
2022/09/30 19:30:02;;;;;;;;;;;;;;;13.41;99.36;100407.88;10099941;29;19939;-73
2022/09/30 19:35:09;;;;;;;;;;;;;;;13.37;98.86;100408.00;10099202;29;20611;-73
2022/09/30 19:40:13;;;;;;;;;;;;;;;13.32;99.77;100408.06;10098865;29;20359;-73
2022/09/30 19:45:24;;;;;;;;;;;;;;;13.32;100.00;100395.03;10098294;29;20381;-72
2022/09/30 19:50:34;;;;;;;;;;;;;;;13.33;100.00;100393.28;10096213;29;20015;-74
2022/09/30 19:55:39;;;;;;;;;;;;;;;13.35;100.00;100418.44;10081694;29;20000;-74
2022/09/30 20:00:55;;;;;;;;;;;;;;;13.33;100.00;100421.97;10098357;29;19999;-73
2022/09/30 20:05:59;;;;;;;;;;;;;;;13.35;100.00;100421.06;10097839;29;19954;-73
2022/09/30 20:11:04;;;;;;;;;;;;;;;13.36;100.00;100414.94;10098421;29;19927;-73
2022/09/30 20:16:09;;;;;;;;;;;;;;;13.37;100.00;100403.63;10098502;29;20487;-74
2022/09/30 20:21:13;;;;;;;;;;;;;;;13.32;100.00;100400.25;10097956;29;19927;-76
2022/09/30 20:26:18;;;;;;;;;;;;;;;13.28;100.00;100395.13;10097984;29;19927;-75
2022/09/30 20:31:21;;;;;;;;;;;;;;;13.28;100.00;100403.81;10097703;29;19927;-74
2022/09/30 20:36:25;;;;;;;;;;;;;;;13.29;100.00;100415.94;10097410;29;19931;-75
2022/09/30 20:41:31;;;;;;;;;;;;;;;13.26;100.00;100402.13;10097570;29;20322;-73
2022/09/30 20:46:34;;;;;;;;;;;;;;;13.27;100.00;100407.31;10096667;29;19932;-75
2022/09/30 20:51:37;;;;;;;;;;;;;;;13.28;100.00;100403.81;10097174;29;20270;-73
2022/09/30 20:56:42;;;;;;;;;;;;;;;13.26;100.00;100402.13;10096782;29;19992;-74
2022/09/30 21:02:05;;;;;;;;;;;;;;;13.23;100.00;100403.06;10094599;29;20273;-75
2022/09/30 21:07:09;;;;;;;;;;;;;;;13.23;100.00;100399.59;10106882;29;19972;-75
2022/09/30 21:12:13;;;;;;;;;;;;;;;13.26;100.00;100389.97;10126913;29;20325;-74
2022/09/30 21:17:16;;;;;;;;;;;;;;;13.19;100.00;100404.00;10095657;29;19928;-76
2022/09/30 21:22:19;;;;;;;;;;;;;;;13.08;100.00;100387.72;10096428;29;19936;-65
2022/09/30 21:27:24;;;;;;;;;;;;;;;13.06;100.00;100383.44;10096293;29;19967;-67
2022/09/30 21:32:27;;;;;;;;;;;;;;;13.04;100.00;100393.03;10094965;29;19974;-67
2022/09/30 21:37:30;;;;;;;;;;;;;;;13.09;100.00;100388.56;10095646;29;19939;-75
2022/09/30 21:42:35;;;;;;;;;;;;;;;13.15;100.00;100386.69;10099632;29;20374;-75
2022/09/30 21:47:38;;;;;;;;;;;;;;;13.16;100.00;100378.00;10126335;29;19932;-75
2022/09/30 21:52:41;;;;;;;;;;;;;;;13.18;100.00;100383.19;10124615;29;20010;-76
2022/09/30 21:57:46;;;;;;;;;;;;;;;13.16;100.00;100382.34;10104637;29;19927;-74
2022/09/30 22:02:49;;;;;;;;;;;;;;;13.19;100.00;100380.53;10105732;29;19928;-74
2022/09/30 22:07:52;;;;;;;;;;;;;;;13.16;100.00;100383.22;10104947;29;19939;-76
2022/09/30 22:12:57;;;;;;;;;;;;;;;13.16;100.00;100377.16;10125326;29;19938;-75
2022/09/30 22:18:00;;;;;;;;;;;;;;;13.17;100.00;100379.72;10143995;29;20203;-77
2022/09/30 22:23:03;;;;;;;;;;;;;;;13.18;100.00;100378.84;10143842;29;19935;-75
2022/09/30 22:28:08;;;;;;;;;;;;;;;13.19;100.00;100388.38;10143830;29;19939;-75
2022/09/30 22:38:32;;;;;;;;;;;;;;;13.09;100.00;100379.03;10126809;29;20354;-73
2022/09/30 22:43:37;;;;;;;;;;;;;;;13.15;100.00;100386.69;10142054;29;19981;-71
2022/09/30 22:48:40;;;;;;;;;;;;;;;13.15;100.00;100391.91;10066658;29;19967;-72
2022/09/30 22:53:43;;;;;;;;;;;;;;;13.00;100.00;100412.16;9726603;29;9999703;-72
2022/09/30 22:58:48;;;;;;;;;;;;;;;12.97;100.00;100402.69;10062654;29;19974;-70
2022/09/30 23:03:52;;;;;;;;;;;;;;;13.00;100.00;100397.41;10062628;29;20292;-69
2022/09/30 23:08:55;;;;;;;;;;;;;;;12.97;100.00;100392.25;10062267;29;19985;-73
2022/09/30 23:14:01;;;;;;;;;;;;;;;12.94;100.00;100394.94;10062056;29;19981;-72
2022/09/30 23:19:05;;;;;;;;;;;;;;;13.02;100.00;100400.00;10062108;29;19935;-72
2022/09/30 23:24:08;;;;;;;;;;;;;;;13.06;100.00;100391.25;10062244;29;19944;-74
2022/09/30 23:29:13;;;;;;;;;;;;;;;13.07;100.00;100396.44;10062085;29;20373;-72
2022/09/30 23:34:16;;;;;;;;;;;;;;;13.09;100.00;100389.44;10061948;29;19968;-67
2022/09/30 23:39:20;;;;;;;;;;;;;;;12.89;100.00;100386.31;10061545;29;19976;-64
2022/09/30 23:44:27;;;;;;;;;;;;;;;12.96;100.00;100380.09;10061022;29;19928;-68
2022/09/30 23:49:34;;;;;;;;;;;;;;;12.87;100.00;100380.31;10063874;29;19951;-63
2022/09/30 23:54:37;;;;;;;;;;;;;;;12.88;100.00;100373.31;10099639;29;19928;-64
2022/09/30 23:59:42;;;;;;;;;;;;;;;12.78;100.00;100383.94;10098745;29;19939;-73
